sensor_id;sensor_type;location;lat;lon;timestamp;temperature;humidity
2453;DHT22;63678;47.994;7.854;2023-07-28T00:00:00;19.80;99.90
2453;DHT22;63678;47.994;7.854;2023-07-28T00:02:40;19.70;99.90
2453;DHT22;63678;47.994;7.854;2023-07-28T00:05:13;19.80;99.90
2453;DHT22;63678;47.994;7.854;2023-07-28T00:07:45;19.80;99.90
2453;DHT22;63678;47.994;7.854;2023-07-28T00:10:18;19.70;99.90
2453;DHT22;63678;47.994;7.854;2023-07-28T00:12:50;19.90;99.90
2453;DHT22;63678;47.994;7.854;2023-07-28T00:15:23;19.90;99.90
2453;DHT22;63678;47.994;7.854;2023-07-28T00:17:55;19.90;99.90
2453;DHT22;63678;47.994;7.854;2023-07-28T00:20:28;20.10;99.90
2453;DHT22;63678;47.994;7.854;2023-07-28T00:23:00;20.10;99.90
2453;DHT22;63678;47.994;7.854;2023-07-28T00:25:33;20.10;99.90
2453;DHT22;63678;47.994;7.854;2023-07-28T00:28:05;20.10;99.90
2453;DHT22;63678;47.994;7.854;2023-07-28T00:30:38;20.10;99.90
2453;DHT22;63678;47.994;7.854;2023-07-28T00:33:11;20.10;99.90
2453;DHT22;63678;47.994;7.854;2023-07-28T00:35:43;20.20;99.90
2453;DHT22;63678;47.994;7.854;2023-07-28T00:38:15;20.20;99.90
2453;DHT22;63678;47.994;7.854;2023-07-28T00:40:48;20.10;99.90
2453;DHT22;63678;47.994;7.854;2023-07-28T00:43:20;20.10;99.90
2453;DHT22;63678;47.994;7.854;2023-07-28T00:45:53;20.10;99.90
2453;DHT22;63678;47.994;7.854;2023-07-28T00:48:26;19.90;99.90
2453;DHT22;63678;47.994;7.854;2023-07-28T00:50:58;19.90;99.90
2453;DHT22;63678;47.994;7.854;2023-07-28T00:53:31;19.90;99.90
2453;DHT22;63678;47.994;7.854;2023-07-28T00:56:05;19.80;99.90
2453;DHT22;63678;47.994;7.854;2023-07-28T00:58:38;19.80;99.90
2453;DHT22;63678;47.994;7.854;2023-07-28T01:01:11;19.70;99.90
2453;DHT22;63678;47.994;7.854;2023-07-28T01:03:43;19.50;99.90
2453;DHT22;63678;47.994;7.854;2023-07-28T01:09:55;19.00;99.90
2453;DHT22;63678;47.994;7.854;2023-07-28T01:12:26;18.80;99.90
2453;DHT22;63678;47.994;7.854;2023-07-28T01:14:58;18.70;99.90
2453;DHT22;63678;47.994;7.854;2023-07-28T01:17:31;18.90;99.90
2453;DHT22;63678;47.994;7.854;2023-07-28T01:20:04;18.90;99.90
2453;DHT22;63678;47.994;7.854;2023-07-28T01:25:57;18.70;99.90
2453;DHT22;63678;47.994;7.854;2023-07-28T01:28:40;18.70;99.90
2453;DHT22;63678;47.994;7.854;2023-07-28T01:31:13;18.60;99.90
2453;DHT22;63678;47.994;7.854;2023-07-28T01:33:46;18.60;99.90
2453;DHT22;63678;47.994;7.854;2023-07-28T01:36:18;18.60;99.90
2453;DHT22;63678;47.994;7.854;2023-07-28T01:38:51;19.10;99.90
2453;DHT22;63678;47.994;7.854;2023-07-28T01:43:56;19.10;99.90
2453;DHT22;63678;47.994;7.854;2023-07-28T01:46:28;19.00;99.90
2453;DHT22;63678;47.994;7.854;2023-07-28T01:49:01;18.90;99.90
2453;DHT22;63678;47.994;7.854;2023-07-28T01:51:34;19.10;99.90
2453;DHT22;63678;47.994;7.854;2023-07-28T01:54:06;18.90;99.90
2453;DHT22;63678;47.994;7.854;2023-07-28T01:56:38;18.80;99.90
2453;DHT22;63678;47.994;7.854;2023-07-28T01:59:12;18.80;99.90
2453;DHT22;63678;47.994;7.854;2023-07-28T02:01:45;18.80;99.90
2453;DHT22;63678;47.994;7.854;2023-07-28T02:04:17;18.80;99.90
2453;DHT22;63678;47.994;7.854;2023-07-28T02:06:50;18.80;99.90
2453;DHT22;63678;47.994;7.854;2023-07-28T02:09:22;18.80;99.90
2453;DHT22;63678;47.994;7.854;2023-07-28T02:11:55;18.80;99.90
2453;DHT22;63678;47.994;7.854;2023-07-28T02:14:27;19.00;99.90
2453;DHT22;63678;47.994;7.854;2023-07-28T02:16:59;18.90;99.90
2453;DHT22;63678;47.994;7.854;2023-07-28T02:19:34;18.90;99.90
2453;DHT22;63678;47.994;7.854;2023-07-28T02:22:06;18.90;99.90
2453;DHT22;63678;47.994;7.854;2023-07-28T02:27:13;19.20;99.90
2453;DHT22;63678;47.994;7.854;2023-07-28T02:29:45;19.10;99.90
2453;DHT22;63678;47.994;7.854;2023-07-28T02:32:18;19.10;99.90
2453;DHT22;63678;47.994;7.854;2023-07-28T02:34:50;18.90;99.90
2453;DHT22;63678;47.994;7.854;2023-07-28T02:37:22;18.90;99.90
2453;DHT22;63678;47.994;7.854;2023-07-28T02:39:55;18.90;99.90
2453;DHT22;63678;47.994;7.854;2023-07-28T02:42:28;18.90;99.90
2453;DHT22;63678;47.994;7.854;2023-07-28T02:45:01;19.10;99.90
2453;DHT22;63678;47.994;7.854;2023-07-28T02:47:34;19.10;99.90
2453;DHT22;63678;47.994;7.854;2023-07-28T02:52:39;19.20;99.90
2453;DHT22;63678;47.994;7.854;2023-07-28T02:55:11;19.20;99.90
2453;DHT22;63678;47.994;7.854;2023-07-28T02:57:44;19.30;99.90
2453;DHT22;63678;47.994;7.854;2023-07-28T03:00:16;19.30;99.90
2453;DHT22;63678;47.994;7.854;2023-07-28T03:02:49;19.30;99.90
2453;DHT22;63678;47.994;7.854;2023-07-28T03:05:21;19.10;99.90
2453;DHT22;63678;47.994;7.854;2023-07-28T03:08:16;19.40;99.90
2453;DHT22;63678;47.994;7.854;2023-07-28T03:10:48;19.40;99.90
2453;DHT22;63678;47.994;7.854;2023-07-28T03:15:53;19.30;99.90
2453;DHT22;63678;47.994;7.854;2023-07-28T03:18:27;19.40;99.90
2453;DHT22;63678;47.994;7.854;2023-07-28T03:21:00;19.40;99.90
2453;DHT22;63678;47.994;7.854;2023-07-28T03:23:32;19.00;99.90
2453;DHT22;63678;47.994;7.854;2023-07-28T03:26:04;18.70;99.90
2453;DHT22;63678;47.994;7.854;2023-07-28T03:28:36;18.70;99.90
2453;DHT22;63678;47.994;7.854;2023-07-28T03:31:09;18.90;99.90
2453;DHT22;63678;47.994;7.854;2023-07-28T03:33:41;19.10;99.90
2453;DHT22;63678;47.994;7.854;2023-07-28T03:36:14;19.20;99.90
2453;DHT22;63678;47.994;7.854;2023-07-28T03:38:46;19.20;99.90
2453;DHT22;63678;47.994;7.854;2023-07-28T03:41:19;19.20;99.90
2453;DHT22;63678;47.994;7.854;2023-07-28T03:43:52;19.20;99.90
2453;DHT22;63678;47.994;7.854;2023-07-28T03:46:24;19.50;99.90
2453;DHT22;63678;47.994;7.854;2023-07-28T03:49:00;19.30;99.90
2453;DHT22;63678;47.994;7.854;2023-07-28T03:51:32;19.20;99.90
2453;DHT22;63678;47.994;7.854;2023-07-28T03:54:05;19.20;99.90
2453;DHT22;63678;47.994;7.854;2023-07-28T03:56:37;19.10;99.90
2453;DHT22;63678;47.994;7.854;2023-07-28T04:01:42;19.20;99.90
2453;DHT22;63678;47.994;7.854;2023-07-28T04:04:15;19.20;99.90
2453;DHT22;63678;47.994;7.854;2023-07-28T04:06:49;19.20;99.90
2453;DHT22;63678;47.994;7.854;2023-07-28T04:09:30;19.10;99.90
2453;DHT22;63678;47.994;7.854;2023-07-28T04:12:03;19.10;99.90
2453;DHT22;63678;47.994;7.854;2023-07-28T04:17:09;19.20;99.90
2453;DHT22;63678;47.994;7.854;2023-07-28T04:19:41;19.20;99.90
2453;DHT22;63678;47.994;7.854;2023-07-28T04:22:14;19.30;99.90
2453;DHT22;63678;47.994;7.854;2023-07-28T04:24:50;19.30;99.90
2453;DHT22;63678;47.994;7.854;2023-07-28T04:27:23;19.20;99.90
2453;DHT22;63678;47.994;7.854;2023-07-28T04:30:01;19.20;99.90
2453;DHT22;63678;47.994;7.854;2023-07-28T04:32:33;19.00;99.90
2453;DHT22;63678;47.994;7.854;2023-07-28T04:35:13;19.10;99.90
2453;DHT22;63678;47.994;7.854;2023-07-28T04:38:07;19.20;99.90
2453;DHT22;63678;47.994;7.854;2023-07-28T04:40:48;19.40;99.90
2453;DHT22;63678;47.994;7.854;2023-07-28T04:43:26;19.80;99.90
2453;DHT22;63678;47.994;7.854;2023-07-28T04:46:00;20.20;99.90
2453;DHT22;63678;47.994;7.854;2023-07-28T04:48:32;20.70;99.90
2453;DHT22;63678;47.994;7.854;2023-07-28T04:51:08;20.90;99.90
2453;DHT22;63678;47.994;7.854;2023-07-28T04:54:00;21.20;99.90
2453;DHT22;63678;47.994;7.854;2023-07-28T04:56:35;21.30;99.90
2453;DHT22;63678;47.994;7.854;2023-07-28T04:59:08;21.40;99.90
2453;DHT22;63678;47.994;7.854;2023-07-28T05:01:40;21.50;99.90
2453;DHT22;63678;47.994;7.854;2023-07-28T05:04:13;21.60;99.90
2453;DHT22;63678;47.994;7.854;2023-07-28T05:06:45;21.70;99.90
2453;DHT22;63678;47.994;7.854;2023-07-28T05:09:18;21.80;99.90
2453;DHT22;63678;47.994;7.854;2023-07-28T05:11:50;21.90;99.90
2453;DHT22;63678;47.994;7.854;2023-07-28T05:14:22;21.90;99.90
2453;DHT22;63678;47.994;7.854;2023-07-28T05:16:54;22.00;99.90
2453;DHT22;63678;47.994;7.854;2023-07-28T05:19:35;22.00;99.90
2453;DHT22;63678;47.994;7.854;2023-07-28T05:22:26;22.00;99.90
2453;DHT22;63678;47.994;7.854;2023-07-28T05:25:00;22.00;99.90
2453;DHT22;63678;47.994;7.854;2023-07-28T05:27:35;22.00;99.90
2453;DHT22;63678;47.994;7.854;2023-07-28T05:30:08;23.40;99.90
2453;DHT22;63678;47.994;7.854;2023-07-28T05:32:41;22.00;99.90
2453;DHT22;63678;47.994;7.854;2023-07-28T05:35:24;22.00;99.90
2453;DHT22;63678;47.994;7.854;2023-07-28T05:37:56;22.00;99.90
2453;DHT22;63678;47.994;7.854;2023-07-28T05:40:29;22.00;99.90
2453;DHT22;63678;47.994;7.854;2023-07-28T05:43:01;22.00;99.90
2453;DHT22;63678;47.994;7.854;2023-07-28T05:45:35;22.00;99.90
2453;DHT22;63678;47.994;7.854;2023-07-28T05:48:10;22.00;99.90
2453;DHT22;63678;47.994;7.854;2023-07-28T05:50:42;22.00;99.90
2453;DHT22;63678;47.994;7.854;2023-07-28T05:53:15;21.90;99.90
2453;DHT22;63678;47.994;7.854;2023-07-28T05:55:47;22.00;99.90
2453;DHT22;63678;47.994;7.854;2023-07-28T05:58:21;21.80;99.90
2453;DHT22;63678;47.994;7.854;2023-07-28T06:00:53;21.90;99.90
2453;DHT22;63678;47.994;7.854;2023-07-28T06:03:52;21.80;99.90
2453;DHT22;63678;47.994;7.854;2023-07-28T06:06:28;21.80;99.90
2453;DHT22;63678;47.994;7.854;2023-07-28T06:09:01;21.70;99.90
2453;DHT22;63678;47.994;7.854;2023-07-28T06:11:33;21.70;99.90
2453;DHT22;63678;47.994;7.854;2023-07-28T06:14:08;21.60;99.90
2453;DHT22;63678;47.994;7.854;2023-07-28T06:16:41;21.60;99.90
2453;DHT22;63678;47.994;7.854;2023-07-28T06:19:14;21.70;99.90
2453;DHT22;63678;47.994;7.854;2023-07-28T06:21:50;21.70;99.90
2453;DHT22;63678;47.994;7.854;2023-07-28T06:24:23;21.70;99.90
2453;DHT22;63678;47.994;7.854;2023-07-28T06:26:55;21.60;99.90
2453;DHT22;63678;47.994;7.854;2023-07-28T06:29:28;21.60;99.90
2453;DHT22;63678;47.994;7.854;2023-07-28T06:32:00;21.50;99.90
2453;DHT22;63678;47.994;7.854;2023-07-28T06:34:33;21.50;99.90
2453;DHT22;63678;47.994;7.854;2023-07-28T06:37:05;21.60;99.90
2453;DHT22;63678;47.994;7.854;2023-07-28T06:39:38;21.60;99.90
2453;DHT22;63678;47.994;7.854;2023-07-28T06:42:11;21.60;99.90
2453;DHT22;63678;47.994;7.854;2023-07-28T06:44:44;21.70;99.90
2453;DHT22;63678;47.994;7.854;2023-07-28T06:47:17;21.70;99.90
2453;DHT22;63678;47.994;7.854;2023-07-28T06:49:50;21.80;99.90
2453;DHT22;63678;47.994;7.854;2023-07-28T06:52:22;21.80;99.90
2453;DHT22;63678;47.994;7.854;2023-07-28T06:54:54;21.80;99.90
2453;DHT22;63678;47.994;7.854;2023-07-28T06:57:26;21.80;99.90
2453;DHT22;63678;47.994;7.854;2023-07-28T06:59:59;21.90;99.90
2453;DHT22;63678;47.994;7.854;2023-07-28T07:02:32;21.90;99.90
2453;DHT22;63678;47.994;7.854;2023-07-28T07:05:05;21.90;99.90
2453;DHT22;63678;47.994;7.854;2023-07-28T07:07:41;22.00;99.90
2453;DHT22;63678;47.994;7.854;2023-07-28T07:10:13;22.00;99.90
2453;DHT22;63678;47.994;7.854;2023-07-28T07:12:46;22.00;99.90
2453;DHT22;63678;47.994;7.854;2023-07-28T07:15:19;22.10;99.90
2453;DHT22;63678;47.994;7.854;2023-07-28T07:17:51;22.10;99.90
2453;DHT22;63678;47.994;7.854;2023-07-28T07:20:24;22.00;99.90
2453;DHT22;63678;47.994;7.854;2023-07-28T07:22:56;22.00;99.90
2453;DHT22;63678;47.994;7.854;2023-07-28T07:25:29;22.00;99.90
2453;DHT22;63678;47.994;7.854;2023-07-28T07:28:01;22.00;99.90
2453;DHT22;63678;47.994;7.854;2023-07-28T07:30:33;22.10;99.90
2453;DHT22;63678;47.994;7.854;2023-07-28T07:33:05;22.10;99.90
2453;DHT22;63678;47.994;7.854;2023-07-28T07:35:38;22.20;99.90
2453;DHT22;63678;47.994;7.854;2023-07-28T07:38:11;22.30;99.90
2453;DHT22;63678;47.994;7.854;2023-07-28T07:40:46;22.30;99.90
2453;DHT22;63678;47.994;7.854;2023-07-28T07:43:20;22.30;99.90
2453;DHT22;63678;47.994;7.854;2023-07-28T07:45:52;22.30;99.90
2453;DHT22;63678;47.994;7.854;2023-07-28T07:48:26;22.40;99.90
2453;DHT22;63678;47.994;7.854;2023-07-28T07:50:59;22.30;99.90
2453;DHT22;63678;47.994;7.854;2023-07-28T07:53:31;22.30;99.90
2453;DHT22;63678;47.994;7.854;2023-07-28T07:56:04;22.30;99.90
2453;DHT22;63678;47.994;7.854;2023-07-28T07:58:37;22.40;99.90
2453;DHT22;63678;47.994;7.854;2023-07-28T08:01:10;22.40;99.90
2453;DHT22;63678;47.994;7.854;2023-07-28T08:03:42;22.50;99.90
2453;DHT22;63678;47.994;7.854;2023-07-28T08:06:14;22.50;99.90
2453;DHT22;63678;47.994;7.854;2023-07-28T08:08:47;22.40;99.90
2453;DHT22;63678;47.994;7.854;2023-07-28T08:11:19;22.40;99.90
2453;DHT22;63678;47.994;7.854;2023-07-28T08:13:51;22.50;99.90
2453;DHT22;63678;47.994;7.854;2023-07-28T08:16:23;22.50;99.90
2453;DHT22;63678;47.994;7.854;2023-07-28T08:18:55;22.50;99.90
2453;DHT22;63678;47.994;7.854;2023-07-28T08:21:28;22.50;99.90
2453;DHT22;63678;47.994;7.854;2023-07-28T08:24:00;22.50;99.90
2453;DHT22;63678;47.994;7.854;2023-07-28T08:26:32;22.50;99.90
2453;DHT22;63678;47.994;7.854;2023-07-28T08:29:05;22.60;99.90
2453;DHT22;63678;47.994;7.854;2023-07-28T08:31:37;22.60;99.90
2453;DHT22;63678;47.994;7.854;2023-07-28T08:34:10;22.60;99.90
2453;DHT22;63678;47.994;7.854;2023-07-28T08:36:43;22.60;99.90
2453;DHT22;63678;47.994;7.854;2023-07-28T08:39:17;22.70;99.90
2453;DHT22;63678;47.994;7.854;2023-07-28T08:42:01;22.70;99.90
2453;DHT22;63678;47.994;7.854;2023-07-28T08:44:34;22.90;99.90
2453;DHT22;63678;47.994;7.854;2023-07-28T08:47:07;23.00;99.90
2453;DHT22;63678;47.994;7.854;2023-07-28T08:49:39;23.10;99.90
2453;DHT22;63678;47.994;7.854;2023-07-28T08:52:15;23.20;99.90
2453;DHT22;63678;47.994;7.854;2023-07-28T08:54:48;23.10;99.90
2453;DHT22;63678;47.994;7.854;2023-07-28T08:57:21;23.20;99.90
2453;DHT22;63678;47.994;7.854;2023-07-28T08:59:52;23.30;99.90
2453;DHT22;63678;47.994;7.854;2023-07-28T09:02:25;23.20;99.90
2453;DHT22;63678;47.994;7.854;2023-07-28T09:04:57;23.20;99.90
2453;DHT22;63678;47.994;7.854;2023-07-28T09:07:35;23.20;99.90
2453;DHT22;63678;47.994;7.854;2023-07-28T09:10:08;23.20;99.90
2453;DHT22;63678;47.994;7.854;2023-07-28T09:12:48;23.10;99.90
2453;DHT22;63678;47.994;7.854;2023-07-28T09:15:21;23.10;99.90
2453;DHT22;63678;47.994;7.854;2023-07-28T09:17:53;23.10;99.90
2453;DHT22;63678;47.994;7.854;2023-07-28T09:20:40;23.10;99.90
2453;DHT22;63678;47.994;7.854;2023-07-28T09:23:14;23.10;99.90
2453;DHT22;63678;47.994;7.854;2023-07-28T09:25:47;24.60;99.90
2453;DHT22;63678;47.994;7.854;2023-07-28T09:28:20;23.00;99.90
2453;DHT22;63678;47.994;7.854;2023-07-28T09:30:52;23.10;99.90
2453;DHT22;63678;47.994;7.854;2023-07-28T09:33:30;23.20;99.90
2453;DHT22;63678;47.994;7.854;2023-07-28T09:36:12;23.30;99.90
2453;DHT22;63678;47.994;7.854;2023-07-28T09:38:46;23.50;99.90
2453;DHT22;63678;47.994;7.854;2023-07-28T09:41:21;23.50;99.90
2453;DHT22;63678;47.994;7.854;2023-07-28T09:43:54;23.40;99.90
2453;DHT22;63678;47.994;7.854;2023-07-28T09:46:28;23.60;99.90
2453;DHT22;63678;47.994;7.854;2023-07-28T09:49:12;23.60;99.90
2453;DHT22;63678;47.994;7.854;2023-07-28T09:51:48;23.80;99.90
2453;DHT22;63678;47.994;7.854;2023-07-28T09:54:25;24.10;99.90
2453;DHT22;63678;47.994;7.854;2023-07-28T09:57:03;24.40;99.90
2453;DHT22;63678;47.994;7.854;2023-07-28T09:59:46;24.90;99.90
2453;DHT22;63678;47.994;7.854;2023-07-28T10:02:19;24.80;99.90
2453;DHT22;63678;47.994;7.854;2023-07-28T10:04:53;24.90;99.90
2453;DHT22;63678;47.994;7.854;2023-07-28T10:07:27;25.10;99.90
2453;DHT22;63678;47.994;7.854;2023-07-28T10:10:03;25.00;99.90
2453;DHT22;63678;47.994;7.854;2023-07-28T10:12:53;25.60;99.90
2453;DHT22;63678;47.994;7.854;2023-07-28T10:15:31;25.40;99.90
2453;DHT22;63678;47.994;7.854;2023-07-28T10:18:07;25.40;99.90
2453;DHT22;63678;47.994;7.854;2023-07-28T10:20:43;25.30;99.90
2453;DHT22;63678;47.994;7.854;2023-07-28T10:23:17;25.10;99.90
2453;DHT22;63678;47.994;7.854;2023-07-28T10:25:59;25.20;99.90
2453;DHT22;63678;47.994;7.854;2023-07-28T10:28:38;25.00;99.90
2453;DHT22;63678;47.994;7.854;2023-07-28T10:31:13;25.10;99.90
2453;DHT22;63678;47.994;7.854;2023-07-28T10:33:46;25.10;99.90
2453;DHT22;63678;47.994;7.854;2023-07-28T10:39:15;25.40;99.90
2453;DHT22;63678;47.994;7.854;2023-07-28T10:42:04;25.30;99.90
2453;DHT22;63678;47.994;7.854;2023-07-28T10:44:38;25.10;99.90
2453;DHT22;63678;47.994;7.854;2023-07-28T10:47:11;25.10;99.90
2453;DHT22;63678;47.994;7.854;2023-07-28T10:49:47;24.90;99.90
2453;DHT22;63678;47.994;7.854;2023-07-28T10:52:23;25.00;99.90
2453;DHT22;63678;47.994;7.854;2023-07-28T10:54:56;26.20;99.90
2453;DHT22;63678;47.994;7.854;2023-07-28T10:57:32;25.10;99.90
2453;DHT22;63678;47.994;7.854;2023-07-28T11:00:07;25.90;99.90
2453;DHT22;63678;47.994;7.854;2023-07-28T11:05:21;24.80;99.90
2453;DHT22;63678;47.994;7.854;2023-07-28T11:07:56;24.60;99.90
2453;DHT22;63678;47.994;7.854;2023-07-28T11:10:30;24.70;99.90
2453;DHT22;63678;47.994;7.854;2023-07-28T11:13:05;24.60;99.90
2453;DHT22;63678;47.994;7.854;2023-07-28T11:15:58;24.80;99.90
2453;DHT22;63678;47.994;7.854;2023-07-28T11:18:30;25.30;99.90
2453;DHT22;63678;47.994;7.854;2023-07-28T11:21:03;25.10;99.90
2453;DHT22;63678;47.994;7.854;2023-07-28T11:23:35;24.80;99.90
2453;DHT22;63678;47.994;7.854;2023-07-28T11:26:07;25.10;99.90
2453;DHT22;63678;47.994;7.854;2023-07-28T11:28:43;25.50;99.90
2453;DHT22;63678;47.994;7.854;2023-07-28T11:31:16;25.80;99.90
2453;DHT22;63678;47.994;7.854;2023-07-28T11:33:48;25.70;99.90
2453;DHT22;63678;47.994;7.854;2023-07-28T11:36:28;25.40;99.90
2453;DHT22;63678;47.994;7.854;2023-07-28T11:39:01;25.20;99.90
2453;DHT22;63678;47.994;7.854;2023-07-28T11:41:38;25.20;99.90
2453;DHT22;63678;47.994;7.854;2023-07-28T11:44:13;25.30;99.90
2453;DHT22;63678;47.994;7.854;2023-07-28T11:46:46;25.30;99.90
2453;DHT22;63678;47.994;7.854;2023-07-28T11:49:19;25.10;99.90
2453;DHT22;63678;47.994;7.854;2023-07-28T11:51:55;25.40;99.90
2453;DHT22;63678;47.994;7.854;2023-07-28T11:54:31;25.30;99.90
2453;DHT22;63678;47.994;7.854;2023-07-28T11:57:03;25.20;99.90
2453;DHT22;63678;47.994;7.854;2023-07-28T11:59:36;25.00;99.90
2453;DHT22;63678;47.994;7.854;2023-07-28T12:02:10;25.00;99.90
2453;DHT22;63678;47.994;7.854;2023-07-28T12:04:45;25.00;99.90
2453;DHT22;63678;47.994;7.854;2023-07-28T12:10:05;25.10;99.90
2453;DHT22;63678;47.994;7.854;2023-07-28T12:12:49;25.00;99.90
2453;DHT22;63678;47.994;7.854;2023-07-28T12:15:27;25.10;99.90
2453;DHT22;63678;47.994;7.854;2023-07-28T12:18:11;25.00;99.90
2453;DHT22;63678;47.994;7.854;2023-07-28T12:20:49;24.90;99.90
2453;DHT22;63678;47.994;7.854;2023-07-28T12:23:23;25.90;99.90
2453;DHT22;63678;47.994;7.854;2023-07-28T12:25:58;24.50;99.90
2453;DHT22;63678;47.994;7.854;2023-07-28T12:28:31;24.50;99.90
2453;DHT22;63678;47.994;7.854;2023-07-28T12:31:15;24.50;99.90
2453;DHT22;63678;47.994;7.854;2023-07-28T12:33:48;24.60;99.90
2453;DHT22;63678;47.994;7.854;2023-07-28T12:36:21;24.50;99.90
2453;DHT22;63678;47.994;7.854;2023-07-28T12:38:56;24.50;99.90
2453;DHT22;63678;47.994;7.854;2023-07-28T12:41:29;24.70;99.90
2453;DHT22;63678;47.994;7.854;2023-07-28T12:44:13;24.30;99.90
2453;DHT22;63678;47.994;7.854;2023-07-28T12:46:47;24.40;99.90
2453;DHT22;63678;47.994;7.854;2023-07-28T12:49:20;24.30;99.90
2453;DHT22;63678;47.994;7.854;2023-07-28T12:51:52;24.40;99.90
2453;DHT22;63678;47.994;7.854;2023-07-28T12:54:28;24.50;99.90
2453;DHT22;63678;47.994;7.854;2023-07-28T12:57:00;23.10;99.90
2453;DHT22;63678;47.994;7.854;2023-07-28T12:59:39;22.40;99.90
2453;DHT22;63678;47.994;7.854;2023-07-28T13:02:14;22.30;99.90
2453;DHT22;63678;47.994;7.854;2023-07-28T13:04:47;22.30;99.90
2453;DHT22;63678;47.994;7.854;2023-07-28T13:07:19;22.10;99.90
2453;DHT22;63678;47.994;7.854;2023-07-28T13:09:56;22.70;99.90
2453;DHT22;63678;47.994;7.854;2023-07-28T13:12:29;22.40;99.90
2453;DHT22;63678;47.994;7.854;2023-07-28T13:15:05;22.50;99.90
2453;DHT22;63678;47.994;7.854;2023-07-28T13:17:38;22.60;99.90
2453;DHT22;63678;47.994;7.854;2023-07-28T13:20:10;22.80;99.90
2453;DHT22;63678;47.994;7.854;2023-07-28T13:22:43;22.90;99.90
2453;DHT22;63678;47.994;7.854;2023-07-28T13:25:15;22.80;99.90
2453;DHT22;63678;47.994;7.854;2023-07-28T13:27:47;22.70;99.90
2453;DHT22;63678;47.994;7.854;2023-07-28T13:30:21;22.80;99.90
2453;DHT22;63678;47.994;7.854;2023-07-28T13:32:53;22.80;99.90
2453;DHT22;63678;47.994;7.854;2023-07-28T13:35:26;22.70;99.90
2453;DHT22;63678;47.994;7.854;2023-07-28T13:37:58;22.80;99.90
2453;DHT22;63678;47.994;7.854;2023-07-28T13:40:31;22.90;99.90
2453;DHT22;63678;47.994;7.854;2023-07-28T13:43:08;23.10;99.90
2453;DHT22;63678;47.994;7.854;2023-07-28T13:48:20;23.10;99.90
2453;DHT22;63678;47.994;7.854;2023-07-28T13:50:55;23.10;99.90
2453;DHT22;63678;47.994;7.854;2023-07-28T13:53:28;23.30;99.90
2453;DHT22;63678;47.994;7.854;2023-07-28T13:56:03;23.50;99.90
2453;DHT22;63678;47.994;7.854;2023-07-28T13:58:52;23.40;99.90
2453;DHT22;63678;47.994;7.854;2023-07-28T14:01:25;23.50;99.90
2453;DHT22;63678;47.994;7.854;2023-07-28T14:06:30;23.80;99.90
2453;DHT22;63678;47.994;7.854;2023-07-28T14:09:03;23.50;99.90
2453;DHT22;63678;47.994;7.854;2023-07-28T14:11:35;23.50;99.90
2453;DHT22;63678;47.994;7.854;2023-07-28T14:14:08;23.60;99.90
2453;DHT22;63678;47.994;7.854;2023-07-28T14:16:40;23.60;99.90
2453;DHT22;63678;47.994;7.854;2023-07-28T14:19:13;23.60;99.90
2453;DHT22;63678;47.994;7.854;2023-07-28T14:21:45;23.80;99.90
2453;DHT22;63678;47.994;7.854;2023-07-28T14:24:17;23.80;99.90
2453;DHT22;63678;47.994;7.854;2023-07-28T14:26:50;23.90;99.90
2453;DHT22;63678;47.994;7.854;2023-07-28T14:29:22;23.90;99.90
2453;DHT22;63678;47.994;7.854;2023-07-28T14:31:55;23.90;99.90
2453;DHT22;63678;47.994;7.854;2023-07-28T14:34:27;24.00;99.90
2453;DHT22;63678;47.994;7.854;2023-07-28T14:37:06;24.60;99.90
2453;DHT22;63678;47.994;7.854;2023-07-28T14:39:38;24.20;99.90
2453;DHT22;63678;47.994;7.854;2023-07-28T14:44:43;24.10;99.90
2453;DHT22;63678;47.994;7.854;2023-07-28T14:47:16;24.20;99.90
2453;DHT22;63678;47.994;7.854;2023-07-28T14:49:48;24.20;99.90
2453;DHT22;63678;47.994;7.854;2023-07-28T14:52:20;24.10;99.90
2453;DHT22;63678;47.994;7.854;2023-07-28T14:54:53;23.90;99.90
2453;DHT22;63678;47.994;7.854;2023-07-28T14:57:25;23.90;99.90
2453;DHT22;63678;47.994;7.854;2023-07-28T15:00:06;23.60;99.90
2453;DHT22;63678;47.994;7.854;2023-07-28T15:02:39;23.40;99.90
2453;DHT22;63678;47.994;7.854;2023-07-28T15:05:11;23.30;99.90
2453;DHT22;63678;47.994;7.854;2023-07-28T15:07:44;23.40;99.90
2453;DHT22;63678;47.994;7.854;2023-07-28T15:10:16;23.40;99.90
2453;DHT22;63678;47.994;7.854;2023-07-28T15:12:49;22.60;99.90
2453;DHT22;63678;47.994;7.854;2023-07-28T15:15:21;22.30;99.90
2453;DHT22;63678;47.994;7.854;2023-07-28T15:17:53;22.00;99.90
2453;DHT22;63678;47.994;7.854;2023-07-28T15:20:26;21.80;99.90
2453;DHT22;63678;47.994;7.854;2023-07-28T15:22:58;21.50;99.90
2453;DHT22;63678;47.994;7.854;2023-07-28T15:28:04;21.20;99.90
2453;DHT22;63678;47.994;7.854;2023-07-28T15:30:36;21.50;99.90
2453;DHT22;63678;47.994;7.854;2023-07-28T15:33:08;21.00;99.90
2453;DHT22;63678;47.994;7.854;2023-07-28T15:35:41;21.00;99.90
2453;DHT22;63678;47.994;7.854;2023-07-28T15:38:13;21.10;99.90
2453;DHT22;63678;47.994;7.854;2023-07-28T15:40:46;21.20;99.90
2453;DHT22;63678;47.994;7.854;2023-07-28T15:43:18;21.20;99.90
2453;DHT22;63678;47.994;7.854;2023-07-28T15:45:51;21.20;99.90
2453;DHT22;63678;47.994;7.854;2023-07-28T15:48:27;21.30;99.90
2453;DHT22;63678;47.994;7.854;2023-07-28T15:50:59;21.00;99.90
2453;DHT22;63678;47.994;7.854;2023-07-28T15:53:32;21.00;99.90
2453;DHT22;63678;47.994;7.854;2023-07-28T15:56:04;20.90;99.90
2453;DHT22;63678;47.994;7.854;2023-07-28T15:58:36;20.90;99.90
2453;DHT22;63678;47.994;7.854;2023-07-28T16:01:09;20.70;99.90
2453;DHT22;63678;47.994;7.854;2023-07-28T16:03:41;20.70;99.90
2453;DHT22;63678;47.994;7.854;2023-07-28T16:08:46;20.80;99.90
2453;DHT22;63678;47.994;7.854;2023-07-28T16:11:18;20.80;99.90
2453;DHT22;63678;47.994;7.854;2023-07-28T16:16:25;20.90;99.90
2453;DHT22;63678;47.994;7.854;2023-07-28T16:18:57;21.00;99.90
2453;DHT22;63678;47.994;7.854;2023-07-28T16:21:31;20.80;99.90
2453;DHT22;63678;47.994;7.854;2023-07-28T16:24:04;20.80;99.90
2453;DHT22;63678;47.994;7.854;2023-07-28T16:26:38;20.80;99.90
2453;DHT22;63678;47.994;7.854;2023-07-28T16:29:10;20.90;99.90
2453;DHT22;63678;47.994;7.854;2023-07-28T16:31:42;20.90;99.90
2453;DHT22;63678;47.994;7.854;2023-07-28T16:34:15;21.00;99.90
2453;DHT22;63678;47.994;7.854;2023-07-28T16:36:47;21.10;99.90
2453;DHT22;63678;47.994;7.854;2023-07-28T16:39:19;21.00;99.90
2453;DHT22;63678;47.994;7.854;2023-07-28T16:41:52;21.10;99.90
2453;DHT22;63678;47.994;7.854;2023-07-28T16:44:24;21.00;99.90
2453;DHT22;63678;47.994;7.854;2023-07-28T16:46:56;21.00;99.90
2453;DHT22;63678;47.994;7.854;2023-07-28T16:49:29;20.90;99.90
2453;DHT22;63678;47.994;7.854;2023-07-28T16:52:02;20.90;99.90
2453;DHT22;63678;47.994;7.854;2023-07-28T16:54:34;20.70;99.90
2453;DHT22;63678;47.994;7.854;2023-07-28T16:59:40;20.50;99.90
2453;DHT22;63678;47.994;7.854;2023-07-28T17:02:12;20.50;99.90
2453;DHT22;63678;47.994;7.854;2023-07-28T17:04:45;20.60;99.90
2453;DHT22;63678;47.994;7.854;2023-07-28T17:09:50;20.70;99.90
2453;DHT22;63678;47.994;7.854;2023-07-28T17:12:22;20.80;99.90
2453;DHT22;63678;47.994;7.854;2023-07-28T17:14:55;20.60;99.90
2453;DHT22;63678;47.994;7.854;2023-07-28T17:17:27;20.50;99.90